createdAt,value
2022-09-28T00:01:01.202Z,1.50
2022-09-28T00:03:29.219Z,1.30
2022-09-28T00:06:02.916Z,1.37
2022-09-28T00:08:31.131Z,1.23
2022-09-28T00:10:59.901Z,1.30
2022-09-28T00:13:29.870Z,1.33
2022-09-28T00:16:02.702Z,1.27
2022-09-28T00:18:31.166Z,1.37
2022-09-28T00:21:08.083Z,1.10
2022-09-28T00:23:57.642Z,1.20
2022-09-28T00:26:26.326Z,1.33
2022-09-28T00:28:58.546Z,1.60
2022-09-28T00:31:28.087Z,1.50
2022-09-28T00:33:56.930Z,1.40
2022-09-28T00:36:27.044Z,1.43
2022-09-28T00:38:55.278Z,1.17
2022-09-28T00:41:23.708Z,1.10
2022-09-28T00:43:51.976Z,1.30
2022-09-28T00:46:28.036Z,1.47
2022-09-28T00:48:59.917Z,1.40
2022-09-28T00:51:28.702Z,1.17
2022-09-28T00:53:57.780Z,1.20
2022-09-28T00:56:31.023Z,1.10
2022-09-28T00:59:00.984Z,1.10
2022-09-28T01:01:30.351Z,1.20
2022-09-28T01:04:01.424Z,1.23
2022-09-28T01:06:33.214Z,1.23
2022-09-28T01:09:05.417Z,1.23
2022-09-28T01:11:34.667Z,1.13
2022-09-28T01:14:03.649Z,1.20
2022-09-28T01:16:40.571Z,1.30
2022-09-28T01:19:27.284Z,1.50
2022-09-28T01:22:12.723Z,1.40
2022-09-28T01:24:44.341Z,1.30
2022-09-28T01:27:16.722Z,1.20
2022-09-28T01:29:53.677Z,1.13
2022-09-28T01:32:37.578Z,1.30
2022-09-28T01:35:10.981Z,1.20
2022-09-28T01:37:46.648Z,1.70
2022-09-28T01:40:16.687Z,1.20
2022-09-28T01:42:49.048Z,1.20
2022-09-28T01:45:22.526Z,1.10
2022-09-28T01:47:51.179Z,1.20
2022-09-28T01:50:24.734Z,0.90
2022-09-28T01:52:57.319Z,1.33
2022-09-28T01:55:30.816Z,1.23
2022-09-28T01:58:04.555Z,1.20
2022-09-28T02:00:35.716Z,1.33
2022-09-28T02:03:07.957Z,1.40
2022-09-28T02:05:38.125Z,1.07
2022-09-28T02:08:10.083Z,1.10
2022-09-28T02:10:43.029Z,1.30
2022-09-28T02:13:17.408Z,1.60
2022-09-28T02:15:51.573Z,1.73
2022-09-28T02:18:20.103Z,1.50
2022-09-28T02:20:57.805Z,1.40
2022-09-28T02:23:29.957Z,1.50
2022-09-28T02:26:03.083Z,1.60
2022-09-28T02:28:32.554Z,1.60
2022-09-28T02:31:00.594Z,1.43
2022-09-28T02:33:33.038Z,1.30
2022-09-28T02:36:03.487Z,1.30
2022-09-28T02:38:31.899Z,1.27
2022-09-28T02:41:05.988Z,1.23
2022-09-28T02:43:50.372Z,1.10
2022-09-28T02:46:28.421Z,1.30
2022-09-28T02:49:21.364Z,1.30
2022-09-28T02:52:04.543Z,1.00
2022-09-28T02:54:58.754Z,1.40
2022-09-28T02:57:36.442Z,1.30
2022-09-28T03:00:10.534Z,1.50
2022-09-28T03:02:48.705Z,1.40
2022-09-28T03:05:20.752Z,1.23
2022-09-28T03:07:56.927Z,1.10
2022-09-28T03:10:29.780Z,1.13
2022-09-28T03:12:58.872Z,1.50
2022-09-28T03:15:29.965Z,1.30
2022-09-28T03:17:58.922Z,1.20
2022-09-28T03:20:27.932Z,1.27
2022-09-28T03:23:22.812Z,1.03
2022-09-28T03:25:44.339Z,1.30
2022-09-28T03:28:12.399Z,1.30
2022-09-28T03:30:43.427Z,1.23
2022-09-28T03:33:11.420Z,1.23
2022-09-28T03:35:39.391Z,1.13
2022-09-28T03:38:07.463Z,1.53
2022-09-28T03:40:35.530Z,1.40
2022-09-28T03:43:03.642Z,1.23
2022-09-28T03:45:31.690Z,1.17
2022-09-28T03:48:01.216Z,1.27
2022-09-28T03:50:29.309Z,1.20
2022-09-28T03:53:02.424Z,0.90
2022-09-28T03:55:30.540Z,1.10
2022-09-28T03:57:58.552Z,1.20
2022-09-28T04:00:26.689Z,1.00
2022-09-28T04:02:55.227Z,1.20
2022-09-28T04:05:24.657Z,1.10
2022-09-28T04:07:56.142Z,0.90
2022-09-28T04:10:24.117Z,1.00
2022-09-28T04:12:55.990Z,0.87
2022-09-28T04:15:24.371Z,1.10
2022-09-28T04:17:52.890Z,0.80
2022-09-28T04:20:21.026Z,1.00
2022-09-28T04:22:50.408Z,1.40
2022-09-28T04:25:18.487Z,1.50
2022-09-28T04:28:04.123Z,1.63
2022-09-28T04:30:32.166Z,1.60
2022-09-28T04:33:00.152Z,1.50
2022-09-28T04:35:28.122Z,1.70
2022-09-28T04:37:57.801Z,1.43
2022-09-28T04:40:26.041Z,1.60
2022-09-28T04:42:57.617Z,1.30
2022-09-28T04:45:26.241Z,1.17
2022-09-28T04:47:54.609Z,1.27
2022-09-28T04:50:22.678Z,1.10
2022-09-28T04:52:50.689Z,1.20
2022-09-28T04:55:20.751Z,1.40
2022-09-28T04:57:48.756Z,1.30
2022-09-28T05:00:17.279Z,1.00
2022-09-28T05:02:45.616Z,1.03
2022-09-28T05:05:13.747Z,1.10
2022-09-28T05:07:41.998Z,1.03
2022-09-28T05:10:10.326Z,1.00
2022-09-28T05:12:39.741Z,1.13
2022-09-28T05:15:08.489Z,1.10
2022-09-28T05:17:36.519Z,0.93
2022-09-28T05:20:05.265Z,1.30
2022-09-28T05:22:34.424Z,1.00
2022-09-28T05:25:02.954Z,1.00
2022-09-28T05:27:30.944Z,1.10
2022-09-28T05:30:00.344Z,1.20
2022-09-28T05:32:28.329Z,1.20
2022-09-28T05:34:56.775Z,0.87
2022-09-28T05:37:24.773Z,1.00
2022-09-28T05:39:52.764Z,1.10
2022-09-28T05:42:20.808Z,1.00
2022-09-28T05:44:48.854Z,1.10
2022-09-28T05:47:18.246Z,1.10
2022-09-28T05:49:46.224Z,1.00
2022-09-28T05:52:14.922Z,1.20
2022-09-28T05:54:42.934Z,0.90
2022-09-28T05:57:11.174Z,1.10
2022-09-28T05:59:39.395Z,1.10
2022-09-28T06:02:08.139Z,1.10
2022-09-28T06:04:37.573Z,1.10
2022-09-28T06:07:05.735Z,0.90
2022-09-28T06:09:33.702Z,0.80
2022-09-28T06:12:02.181Z,1.40
2022-09-28T06:14:30.211Z,1.80
2022-09-28T06:17:09.848Z,1.40
2022-09-28T06:19:45.207Z,1.60
2022-09-28T06:22:13.302Z,1.20
2022-09-28T06:24:41.296Z,1.70
2022-09-28T06:27:09.302Z,1.10
2022-09-28T06:29:37.447Z,1.50
2022-09-28T06:32:07.276Z,1.53
2022-09-28T06:34:36.077Z,1.47
2022-09-28T06:37:05.456Z,1.40
2022-09-28T06:39:33.469Z,1.23
2022-09-28T06:42:03.346Z,1.43
2022-09-28T06:44:32.315Z,1.23
2022-09-28T06:47:01.289Z,1.57
2022-09-28T06:49:30.291Z,1.17
2022-09-28T06:51:58.399Z,1.23
2022-09-28T06:54:27.809Z,1.33
2022-09-28T06:56:55.824Z,1.20
2022-09-28T06:59:24.024Z,1.10
2022-09-28T07:01:52.138Z,1.37
2022-09-28T07:04:20.239Z,1.37
2022-09-28T07:06:49.043Z,1.60
2022-09-28T07:09:31.477Z,1.20
2022-09-28T07:12:04.219Z,1.23
2022-09-28T07:14:47.000Z,1.20
2022-09-28T07:17:15.757Z,1.50
2022-09-28T07:19:44.516Z,1.47
2022-09-28T07:22:18.976Z,1.60
2022-09-28T07:24:48.853Z,1.77
2022-09-28T07:27:18.271Z,1.57
2022-09-28T07:29:46.291Z,1.70
2022-09-28T07:32:14.286Z,1.63
2022-09-28T07:34:43.852Z,1.50
2022-09-28T07:37:13.304Z,1.70
2022-09-28T07:39:58.438Z,1.30
2022-09-28T07:42:30.048Z,1.60
2022-09-28T07:44:58.136Z,1.20
2022-09-28T07:47:32.221Z,1.50
2022-09-28T07:50:02.913Z,1.40
2022-09-28T07:52:30.903Z,1.43
2022-09-28T07:55:04.550Z,1.40
2022-09-28T07:57:36.366Z,1.77
2022-09-28T08:00:07.636Z,1.40
2022-09-28T08:02:35.763Z,1.63
2022-09-28T08:05:04.182Z,1.40
2022-09-28T08:07:33.834Z,1.60
2022-09-28T08:10:01.905Z,1.43
2022-09-28T08:12:29.986Z,1.70
2022-09-28T08:15:00.150Z,1.53
2022-09-28T08:17:28.403Z,1.53
2022-09-28T08:20:13.614Z,1.77
2022-09-28T08:22:41.628Z,1.70
2022-09-28T08:25:10.110Z,1.50
2022-09-28T08:27:38.181Z,1.70
2022-09-28T08:30:09.091Z,1.80
2022-09-28T08:32:37.149Z,1.80
2022-09-28T08:35:07.951Z,2.30
2022-09-28T08:37:35.981Z,2.00
2022-09-28T08:40:04.483Z,1.70
2022-09-28T08:42:36.822Z,1.50
2022-09-28T08:45:12.802Z,2.63
2022-09-28T08:48:08.856Z,1.80
2022-09-28T08:50:42.697Z,2.00
2022-09-28T08:53:25.361Z,1.90
2022-09-28T08:55:54.225Z,1.70
2022-09-28T08:58:28.300Z,2.33
2022-09-28T09:00:59.159Z,2.17
2022-09-28T09:03:33.456Z,1.50
2022-09-28T09:06:18.427Z,1.70
2022-09-28T09:08:57.293Z,1.77
2022-09-28T09:11:44.485Z,1.57
2022-09-28T09:14:31.051Z,1.67
2022-09-28T09:17:06.133Z,2.30
2022-09-28T09:19:40.267Z,2.67
2022-09-28T09:22:17.467Z,1.90
2022-09-28T09:24:51.271Z,2.07
2022-09-28T09:27:43.747Z,2.43
2022-09-28T09:30:17.918Z,2.53
2022-09-28T09:33:08.238Z,3.23
2022-09-28T09:36:01.670Z,1.73
2022-09-28T09:38:42.807Z,2.00
2022-09-28T09:41:22.505Z,2.10
2022-09-28T09:44:12.134Z,2.20
2022-09-28T09:46:47.831Z,1.90
2022-09-28T09:49:21.414Z,1.67
2022-09-28T09:51:54.581Z,1.90
2022-09-28T09:54:28.730Z,1.60
2022-09-28T09:57:00.714Z,1.60
2022-09-28T09:59:33.750Z,1.53
2022-09-28T10:02:04.022Z,1.50
2022-09-28T10:04:41.717Z,2.10
2022-09-28T10:07:15.735Z,1.87
2022-09-28T10:09:47.112Z,2.50
2022-09-28T10:12:16.947Z,2.00
2022-09-28T10:14:46.411Z,2.30
2022-09-28T10:17:20.116Z,2.03
2022-09-28T10:19:49.540Z,2.27
2022-09-28T10:22:21.867Z,2.90
2022-09-28T10:24:54.810Z,3.10
2022-09-28T10:27:26.785Z,3.10
2022-09-28T10:29:59.040Z,3.67
2022-09-28T10:32:29.306Z,2.53
2022-09-28T10:35:22.700Z,3.37
2022-09-28T10:37:54.311Z,3.90
2022-09-28T10:40:34.667Z,3.40
2022-09-28T10:43:09.073Z,3.87
2022-09-28T10:45:38.520Z,3.63
2022-09-28T10:48:14.937Z,3.27
2022-09-28T10:50:44.587Z,3.33
2022-09-28T10:53:19.431Z,3.87
2022-09-28T10:55:59.669Z,4.10
2022-09-28T10:58:30.762Z,4.03
2022-09-28T11:01:06.360Z,3.87
2022-09-28T11:03:34.633Z,3.77
2022-09-28T11:06:06.830Z,3.70
2022-09-28T11:08:39.574Z,4.10
2022-09-28T11:11:10.859Z,3.73
2022-09-28T11:13:45.005Z,1.77
2022-09-28T11:16:37.620Z,1.70
2022-09-28T11:19:27.313Z,2.40
2022-09-28T11:21:56.909Z,1.73
2022-09-28T11:24:27.130Z,2.40
2022-09-28T11:26:57.681Z,2.20
2022-09-28T11:29:35.717Z,2.13
2022-09-28T11:32:07.018Z,2.27
2022-09-28T11:34:58.098Z,2.63
2022-09-28T11:37:45.593Z,2.20
2022-09-28T11:40:28.298Z,2.50
2022-09-28T11:43:08.247Z,1.93
2022-09-28T11:45:48.862Z,2.27
2022-09-28T11:48:18.788Z,2.33
2022-09-28T11:50:50.747Z,2.20
2022-09-28T11:53:26.154Z,2.37
2022-09-28T11:56:03.207Z,2.27
2022-09-28T11:58:38.872Z,2.90
2022-09-28T12:01:09.840Z,2.70
2022-09-28T12:03:43.455Z,2.33
2022-09-28T12:06:16.851Z,2.93
2022-09-28T12:08:53.737Z,2.30
2022-09-28T12:11:29.559Z,2.60
2022-09-28T12:14:01.511Z,3.70
2022-09-28T12:17:00.980Z,2.27
2022-09-28T12:19:26.837Z,2.67
2022-09-28T12:21:58.562Z,2.37
2022-09-28T12:24:32.153Z,2.20
2022-09-28T12:27:05.821Z,2.30
2022-09-28T12:29:38.853Z,2.17
2022-09-28T12:32:15.435Z,2.60
2022-09-28T12:34:44.162Z,2.10
2022-09-28T12:37:28.813Z,2.43
2022-09-28T12:40:16.617Z,2.40
2022-09-28T12:43:00.171Z,2.37
2022-09-28T12:45:59.720Z,2.30
2022-09-28T12:48:44.066Z,2.00
2022-09-28T12:51:26.337Z,2.00
2022-09-28T12:54:08.197Z,1.77
2022-09-28T12:56:43.418Z,2.30
2022-09-28T12:59:20.844Z,1.90
2022-09-28T13:02:02.361Z,1.83
2022-09-28T13:04:48.403Z,1.83
2022-09-28T13:07:27.221Z,1.50
2022-09-28T13:10:07.741Z,1.70
2022-09-28T13:13:01.123Z,1.80
2022-09-28T13:15:39.846Z,2.00
2022-09-28T13:18:19.388Z,1.40
2022-09-28T13:21:06.627Z,1.70
2022-09-28T13:23:38.787Z,1.30
2022-09-28T13:26:16.027Z,1.30
2022-09-28T13:28:48.050Z,1.57
2022-09-28T13:31:21.742Z,1.30
2022-09-28T13:33:51.516Z,1.63
2022-09-28T13:36:41.689Z,1.37
2022-09-28T13:39:52.803Z,1.67
2022-09-28T13:42:53.823Z,1.47
2022-09-28T13:45:41.529Z,1.43
2022-09-28T13:48:17.036Z,1.83
2022-09-28T13:51:07.670Z,1.50
2022-09-28T13:54:06.842Z,1.50
2022-09-28T13:56:40.188Z,1.30
2022-09-28T13:59:17.986Z,1.40
2022-09-28T14:01:55.876Z,1.30
2022-09-28T14:04:25.940Z,1.10
2022-09-28T14:06:57.492Z,1.30
2022-09-28T14:09:39.720Z,1.30
2022-09-28T14:12:46.624Z,1.00
2022-09-28T14:15:56.272Z,1.10
2022-09-28T14:18:32.316Z,0.90
2022-09-28T14:21:36.972Z,1.10
2022-09-28T14:24:27.310Z,0.90
2022-09-28T14:27:23.456Z,1.00
2022-09-28T14:30:06.417Z,0.80
2022-09-28T14:32:37.013Z,1.00
2022-09-28T14:35:08.781Z,1.30
2022-09-28T14:37:58.298Z,1.10
2022-09-28T14:40:49.750Z,1.00
2022-09-28T14:43:36.874Z,1.00
2022-09-28T14:46:31.516Z,1.03
2022-09-28T14:49:03.432Z,0.70
2022-09-28T14:52:02.902Z,0.93
2022-09-28T14:54:41.695Z,1.30
2022-09-28T14:57:18.108Z,1.37
2022-09-28T14:59:47.895Z,1.20
2022-09-28T15:02:24.314Z,1.40
2022-09-28T15:04:56.244Z,2.33
2022-09-28T15:07:28.864Z,3.17
2022-09-28T15:09:57.873Z,2.40
2022-09-28T15:12:28.535Z,1.70
2022-09-28T15:15:01.379Z,9.47
2022-09-28T15:17:37.040Z,4.00
2022-09-28T15:20:24.998Z,3.47
2022-09-28T15:22:57.586Z,1.80
2022-09-28T15:25:27.573Z,2.30
2022-09-28T15:27:57.231Z,2.00
2022-09-28T15:30:31.734Z,1.70
2022-09-28T15:33:15.770Z,1.90
2022-09-28T15:35:45.965Z,2.00
2022-09-28T15:38:18.206Z,1.83
2022-09-28T15:40:47.591Z,2.40
2022-09-28T15:43:26.940Z,2.80
2022-09-28T15:46:02.630Z,3.07
2022-09-28T15:48:34.308Z,4.00
2022-09-28T15:51:10.181Z,12.67
2022-09-28T15:53:44.185Z,16.37
2022-09-28T15:56:12.487Z,10.63
2022-09-28T15:58:40.889Z,6.40
2022-09-28T16:01:36.400Z,5.90
2022-09-28T16:04:41.103Z,4.10
2022-09-28T16:07:26.297Z,3.03
2022-09-28T16:10:04.841Z,4.53
2022-09-28T16:12:46.153Z,6.80
2022-09-28T16:15:20.248Z,5.10
2022-09-28T16:17:53.473Z,6.40
2022-09-28T16:20:32.000Z,10.00
2022-09-28T16:23:05.888Z,9.17
2022-09-28T16:25:39.113Z,4.23
2022-09-28T16:28:10.564Z,6.30
2022-09-28T16:30:59.783Z,3.70
2022-09-28T16:33:29.452Z,4.40
2022-09-28T16:36:02.713Z,2.73
2022-09-28T16:38:30.828Z,2.93
2022-09-28T16:41:02.796Z,3.00
2022-09-28T16:43:32.530Z,2.87
2022-09-28T16:46:02.849Z,2.73
2022-09-28T16:48:33.071Z,3.10
2022-09-28T16:51:01.703Z,2.00
2022-09-28T16:53:47.516Z,2.37
2022-09-28T16:56:18.499Z,2.33
2022-09-28T16:58:49.152Z,2.80
2022-09-28T17:01:17.284Z,2.60
2022-09-28T17:03:46.928Z,3.37
2022-09-28T17:06:16.034Z,2.70
2022-09-28T17:08:45.049Z,2.70
2022-09-28T17:11:22.700Z,2.77
2022-09-28T17:13:51.902Z,2.70
2022-09-28T17:16:37.044Z,2.43
2022-09-28T17:19:20.707Z,1.87
2022-09-28T17:21:48.975Z,1.97
2022-09-28T17:24:17.117Z,2.20
2022-09-28T17:26:48.054Z,2.03
2022-09-28T17:29:16.893Z,3.40
2022-09-28T17:31:46.109Z,3.27
2022-09-28T17:34:17.553Z,3.40
2022-09-28T17:36:46.411Z,4.10
2022-09-28T17:39:16.427Z,2.60
2022-09-28T17:41:45.880Z,2.03
2022-09-28T17:44:18.070Z,2.07
2022-09-28T17:46:49.155Z,2.00
2022-09-28T17:49:17.854Z,2.63
2022-09-28T17:51:45.921Z,2.27
2022-09-28T17:54:16.944Z,2.90
2022-09-28T17:56:46.486Z,2.40
2022-09-28T17:59:17.434Z,3.00
2022-09-28T18:01:45.650Z,2.70
2022-09-28T18:04:33.243Z,3.03
2022-09-28T18:07:03.775Z,2.57
2022-09-28T18:09:33.468Z,3.23
2022-09-28T18:12:05.566Z,3.20
2022-09-28T18:14:33.825Z,2.70
2022-09-28T18:17:01.836Z,2.33
2022-09-28T18:19:32.148Z,2.60
2022-09-28T18:22:01.430Z,3.00
2022-09-28T18:24:29.834Z,2.60
2022-09-28T18:26:57.973Z,2.90
2022-09-28T18:29:32.256Z,3.30
2022-09-28T18:32:01.418Z,4.30
2022-09-28T18:34:29.424Z,6.17
2022-09-28T18:36:57.488Z,12.83
2022-09-28T18:39:26.538Z,8.17
2022-09-28T18:41:54.592Z,4.40
2022-09-28T18:44:22.928Z,3.77
2022-09-28T18:46:52.337Z,3.40
2022-09-28T18:49:20.667Z,3.33
2022-09-28T18:51:48.804Z,3.10
2022-09-28T18:54:17.152Z,2.80
2022-09-28T18:56:45.211Z,2.77
2022-09-28T18:59:14.152Z,2.70
2022-09-28T19:01:43.289Z,2.67
2022-09-28T19:04:13.540Z,2.70
2022-09-28T19:06:44.797Z,2.60
2022-09-28T19:09:13.189Z,2.60
2022-09-28T19:11:41.323Z,2.87
2022-09-28T19:14:14.980Z,3.27
2022-09-28T19:16:44.349Z,3.07
2022-09-28T19:19:16.291Z,3.20
2022-09-28T19:21:44.919Z,2.67
2022-09-28T19:24:15.421Z,3.30
2022-09-28T19:26:43.965Z,3.50
2022-09-28T19:29:12.597Z,3.40
2022-09-28T19:31:40.704Z,3.10
2022-09-28T19:34:11.825Z,3.40
2022-09-28T19:36:44.144Z,3.90
2022-09-28T19:52:12.844Z,2.50
2022-09-28T20:09:55.037Z,2.53
2022-09-28T20:12:23.685Z,2.53
2022-09-28T20:14:51.686Z,2.20
2022-09-28T20:17:21.998Z,2.23
2022-09-28T20:19:51.693Z,2.77
2022-09-28T20:25:39.543Z,3.13
2022-09-28T20:43:19.234Z,2.20
2022-09-28T20:46:44.606Z,2.33
2022-09-28T20:49:14.916Z,2.50
2022-09-28T20:51:46.284Z,2.33
2022-09-28T20:54:14.419Z,2.33
2022-09-28T20:56:46.709Z,2.53
2022-09-28T20:59:20.706Z,3.50
2022-09-28T21:02:20.448Z,3.60
2022-09-28T21:05:08.883Z,2.80
2022-09-28T21:07:53.848Z,2.67
2022-09-28T21:10:45.280Z,2.60
2022-09-28T21:13:29.671Z,2.37
2022-09-28T21:16:16.868Z,2.23
2022-09-28T21:18:58.038Z,2.10
2022-09-28T21:22:05.123Z,2.20
2022-09-28T21:24:59.340Z,2.30
2022-09-28T21:27:36.338Z,2.50
2022-09-28T21:30:20.093Z,2.50
2022-09-28T21:32:53.650Z,2.70
2022-09-28T21:35:26.119Z,2.67
2022-09-28T21:37:58.501Z,2.20
2022-09-28T21:40:34.504Z,2.23
2022-09-28T21:43:41.681Z,2.43
2022-09-28T21:46:22.168Z,2.63
2022-09-28T21:48:53.573Z,2.37
2022-09-28T21:51:22.053Z,2.00
2022-09-28T21:53:51.575Z,2.20
2022-09-28T21:56:19.633Z,2.00
2022-09-28T21:58:48.187Z,2.40
2022-09-28T22:01:19.544Z,2.20
2022-09-28T22:03:50.541Z,2.20
2022-09-28T22:06:20.224Z,2.60
2022-09-28T22:08:49.287Z,1.90
2022-09-28T22:11:20.556Z,1.80
2022-09-28T22:13:51.109Z,2.00
2022-09-28T22:16:21.146Z,1.80
2022-09-28T22:18:49.588Z,1.93
2022-09-28T22:21:19.515Z,2.00
2022-09-28T22:23:48.159Z,2.17
2022-09-28T22:26:21.574Z,1.90
2022-09-28T22:28:51.994Z,2.00
2022-09-28T22:31:22.010Z,2.20
2022-09-28T22:33:50.108Z,2.13
2022-09-28T22:36:19.938Z,2.20
2022-09-28T22:38:48.533Z,2.20
2022-09-28T22:41:21.029Z,2.20
2022-09-28T22:43:50.240Z,2.27
2022-09-28T22:46:20.113Z,2.30
2022-09-28T22:48:48.657Z,2.10
2022-09-28T22:51:17.060Z,2.03
2022-09-28T22:53:46.101Z,2.00
2022-09-28T22:56:18.513Z,1.93
2022-09-28T22:58:48.982Z,2.33
2022-09-28T23:01:19.298Z,3.20
2022-09-28T23:03:47.709Z,3.30
2022-09-28T23:06:17.375Z,3.10
2022-09-28T23:08:47.295Z,4.03
2022-09-28T23:11:16.165Z,3.47
2022-09-28T23:13:44.670Z,2.97
2022-09-28T23:16:15.018Z,3.40
2022-09-28T23:18:43.589Z,3.17
2022-09-28T23:21:15.176Z,3.40
2022-09-28T23:23:43.422Z,3.57
2022-09-28T23:26:14.598Z,3.77
2022-09-28T23:28:42.829Z,4.20
2022-09-28T23:31:11.971Z,3.33
2022-09-28T23:33:41.598Z,2.93
2022-09-28T23:36:10.366Z,3.40
2022-09-28T23:38:38.703Z,3.33
2022-09-28T23:41:07.003Z,2.80
2022-09-28T23:43:36.163Z,2.50
2022-09-28T23:46:04.655Z,2.73
2022-09-28T23:48:33.126Z,2.40
2022-09-28T23:51:03.256Z,2.23
2022-09-28T23:53:32.210Z,2.33
2022-09-28T23:56:00.485Z,2.60
2022-09-28T23:58:28.593Z,2.30
